Time;durP1;ratioP1;P1;durP2;ratioP2;P2;SDS_P1;SDS_P2;PMS_P1;PMS_P2;Temp;Humidity;BMP_temperature;BMP_pressure;BME280_temperature;BME280_humidity;BME280_pressure;Samples;Min_cycle;Max_cycle;Signal;HPM_P1;HPM_P2
2023/04/06 00:00:53;;;;;;;8.80;4.30;;;;;;;2.01;47.70;100682.11;103525;1254;96459;-81
2023/04/06 00:03:28;;;;;;;7.80;4.40;;;;;;;2.01;47.67;100677.98;103237;1254;136887;-81
2023/04/06 00:05:55;;;;;;;8.40;4.80;;;;;;;1.99;47.86;100682.44;103440;1254;96601;-80
2023/04/06 00:08:34;;;;;;;7.40;4.60;;;;;;;1.97;47.82;100679.30;103240;1257;137183;-81
2023/04/06 00:11:02;;;;;;;6.80;4.30;;;;;;;1.95;47.89;100673.46;103729;1254;107301;-81
2023/04/06 00:13:40;;;;;;;6.60;4.40;;;;;;;1.93;48.00;100670.35;103290;1254;137652;-81
2023/04/06 00:16:09;;;;;;;8.30;5.10;;;;;;;1.91;47.94;100668.62;102620;1254;1003497;-81
2023/04/06 00:18:41;;;;;;;8.40;5.30;;;;;;;1.92;48.02;100672.58;103300;1257;96438;-81
2023/04/06 00:21:08;;;;;;;9.20;5.40;;;;;;;1.92;48.16;100669.83;103378;1254;137181;-81
2023/04/06 00:23:36;;;;;;;10.30;6.30;;;;;;;1.93;48.26;100667.61;103413;1254;106938;-80
2023/04/06 00:26:03;;;;;;;10.00;5.40;;;;;;;1.94;48.31;100663.66;103306;1258;137657;-80
2023/04/06 00:28:42;;;;;;;11.20;5.70;;;;;;;1.91;48.27;100664.34;103649;1253;107681;-80
2023/04/06 00:31:23;;;;;;;9.00;5.10;;;;;;;1.89;48.29;100663.98;103355;1257;96547;-80
2023/04/06 00:33:55;;;;;;;12.00;6.10;;;;;;;1.90;48.38;100660.90;103409;1254;109768;-79
2023/04/06 00:36:26;;;;;;;10.90;5.70;;;;;;;1.92;48.40;100661.77;103360;1257;107562;-80
2023/04/06 00:38:56;;;;;;;7.50;5.30;;;;;;;1.91;48.52;100659.52;103768;1254;137510;-81
2023/04/06 00:41:27;;;;;;;7.20;5.30;;;;;;;1.90;48.54;100657.13;103347;1257;108669;-80
2023/04/06 00:44:02;;;;;;;;;;;;;;;1.90;48.55;100654.72;103292;1254;137510;-80
2023/04/06 00:46:30;;;;;;;8.60;5.50;;;;;;;1.88;48.76;100650.77;103363;1254;110449;-81
2023/04/06 00:48:59;;;;;;;10.30;5.40;;;;;;;1.88;48.64;100654.02;103344;1254;107574;-79
2023/04/06 00:51:26;;;;;;;8.70;5.40;;;;;;;1.89;48.70;100652.83;103323;1254;137520;-79
2023/04/06 00:53:56;;;;;;;10.80;4.80;;;;;;;1.88;48.70;100651.96;103394;1254;108013;-79
2023/04/06 00:56:26;;;;;;;7.40;5.10;;;;;;;1.90;48.75;100648.55;103286;1253;137429;-80
2023/04/06 00:58:57;;;;;;;9.20;5.40;;;;;;;1.91;48.86;100648.89;103471;1257;111784;-80
2023/04/06 01:01:25;;;;;;;10.90;5.50;;;;;;;1.93;48.80;100648.58;103395;1254;107886;-80
2023/04/06 01:03:55;;;;;;;7.90;4.60;;;;;;;1.93;48.81;100648.92;103312;1257;222693;-80
2023/04/06 01:06:23;;;;;;;8.70;4.50;;;;;;;1.93;48.69;100645.83;103451;1257;108316;-82
2023/04/06 01:09:00;;;;;;;12.00;5.30;;;;;;;1.94;48.65;100642.05;102486;1254;1003737;-80
2023/04/06 01:11:28;;;;;;;6.10;4.20;;;;;;;1.96;48.71;100644.14;103584;1254;110268;-81
2023/04/06 01:13:59;;;;;;;5.60;4.00;;;;;;;1.97;48.51;100641.23;103173;1256;137547;-80
2023/04/06 01:16:33;;;;;;;5.90;4.20;;;;;;;1.97;48.55;100641.41;103429;1253;96739;-80
2023/04/06 01:19:24;;;;;;;7.30;4.20;;;;;;;1.97;48.66;100640.54;103503;1254;108290;-80
2023/04/06 01:21:53;;;;;;;7.70;4.40;;;;;;;1.97;48.54;100638.15;103226;1257;137150;-80
2023/04/06 01:24:30;;;;;;;8.90;4.00;;;;;;;1.97;48.61;100636.09;103437;1254;110322;-78
2023/04/06 01:27:01;;;;;;;6.80;4.40;;;;;;;1.97;48.64;100631.97;103291;1254;137337;-79
2023/04/06 01:29:48;;;;;;;7.60;4.30;;;;;;;1.98;48.59;100631.30;103568;1253;96482;-78
2023/04/06 01:32:24;;;;;;;5.90;4.30;;;;;;;1.99;48.59;100629.27;103187;1254;137136;-78
2023/04/06 01:34:55;;;;;;;10.40;4.80;;;;;;;1.99;48.82;100627.22;103344;1258;96534;-79
2023/04/06 01:37:23;;;;;;;6.90;4.60;;;;;;;2.01;48.78;100624.66;103395;1254;109489;-79
2023/04/06 01:39:52;;;;;;;7.60;4.40;;;;;;;2.00;48.86;100622.93;103168;1254;137557;-78
2023/04/06 01:42:28;;;;;;;7.70;4.80;;;;;;;2.01;48.99;100624.14;103353;1254;96436;-79
2023/04/06 01:44:56;;;;;;;9.50;4.80;;;;;;;1.99;48.98;100621.02;103344;1254;137297;-79
2023/04/06 01:47:34;;;;;;;7.60;4.70;;;;;;;2.01;49.05;100625.17;103380;1254;96456;-78
2023/04/06 01:50:05;;;;;;;9.00;4.60;;;;;;;2.01;48.83;100619.34;103278;1254;137418;-78
2023/04/06 01:52:36;;;;;;;8.90;4.50;;;;;;;1.99;48.84;100615.55;103471;1254;107414;-77
2023/04/06 01:55:08;;;;;;;8.20;4.60;;;;;;;1.99;49.08;100610.92;103667;1256;96444;-78
2023/04/06 01:57:56;;;;;;;8.20;4.60;;;;;;;2.00;49.21;100611.79;103318;1254;108445;-78
2023/04/06 02:00:43;;;;;;;8.30;4.90;;;;;;;2.00;49.21;100614.70;103394;1254;96428;-79
2023/04/06 02:03:15;;;;;;;11.60;4.40;;;;;;;2.01;49.36;100611.10;103365;1257;137517;-79
2023/04/06 02:05:46;;;;;;;9.10;5.00;;;;;;;2.02;49.50;100612.32;103374;1254;106217;-78
2023/04/06 02:08:34;;;;;;;8.10;5.10;;;;;;;2.04;49.65;100606.84;103317;1254;137300;-78
2023/04/06 02:11:04;;;;;;;8.40;4.90;;;;;;;2.05;49.80;100611.65;103334;1254;108686;-77
2023/04/06 02:14:01;;;;;;;9.70;5.40;;;;;;;2.06;49.88;100607.20;103167;1254;137591;-78
2023/04/06 02:16:31;;;;;;;11.10;5.50;;;;;;;2.05;50.01;100602.39;103411;1256;110329;-78
2023/04/06 02:18:58;;;;;;;10.40;5.90;;;;;;;2.04;49.99;100601.17;103345;1255;108035;-78
2023/04/06 02:21:26;;;;;;;9.30;5.90;;;;;;;2.03;50.19;100602.20;103225;1254;137709;-78
2023/04/06 02:23:53;;;;;;;12.00;6.50;;;;;;;2.02;50.29;100599.63;103347;1258;108714;-78
2023/04/06 02:26:21;;;;;;;13.70;6.30;;;;;;;2.01;50.43;100598.76;103172;1256;137610;-78
2023/04/06 02:28:57;;;;;;;16.00;7.50;;;;;;;1.99;50.73;100600.11;103378;1254;110179;-78
2023/04/06 02:31:44;;;;;;;13.40;7.50;;;;;;;1.96;50.72;100594.23;103192;1258;138353;-78
2023/04/06 02:34:22;;;;;;;17.90;8.00;;;;;;;1.93;50.77;100592.50;103318;1259;96502;-78
2023/04/06 02:36:54;;;;;;;16.40;8.50;;;;;;;1.91;51.06;100593.52;103359;1254;108201;-78
2023/04/06 02:39:29;;;;;;;18.30;9.00;;;;;;;1.89;51.10;100591.78;103223;1258;137651;-78
2023/04/06 02:41:58;;;;;;;18.60;8.80;;;;;;;1.85;51.29;100586.79;103291;1254;109981;-78
2023/04/06 02:44:29;;;;;;;16.40;9.40;;;;;;;1.83;51.45;100589.17;103210;1258;137397;-78
2023/04/06 02:47:08;;;;;;;16.80;8.70;;;;;;;1.81;51.61;100586.93;103316;1258;96441;-79
2023/04/06 02:49:36;;;;;;;15.70;9.40;;;;;;;1.78;51.79;100586.02;103132;1256;139165;-78
2023/04/06 02:52:04;;;;;;;17.30;8.80;;;;;;;1.77;51.96;100588.41;103253;1254;96316;-78
2023/04/06 02:54:52;;;;;;;23.60;9.00;;;;;;;1.74;52.04;100583.59;103417;1254;112188;-79
2023/04/06 02:57:39;;;;;;;16.00;9.00;;;;;;;1.71;52.24;100582.36;103217;1254;137507;-79
2023/04/06 03:00:12;;;;;;;19.80;9.60;;;;;;;1.67;52.48;100582.52;102556;1255;1003096;-76
2023/04/06 03:02:51;;;;;;;18.70;9.40;;;;;;;1.64;52.41;100586.09;103252;1254;138095;-79
2023/04/06 03:05:19;;;;;;;17.00;9.80;;;;;;;1.60;52.60;100589.80;103481;1258;96625;-77
2023/04/06 03:07:47;;;;;;;21.20;9.50;;;;;;;1.56;52.75;100590.96;103187;1255;137530;-77
2023/04/06 03:10:34;;;;;;;16.00;9.20;;;;;;;1.52;52.98;100585.27;103302;1254;107980;-77
2023/04/06 03:13:02;;;;;;;21.20;10.00;;;;;;;1.48;53.04;100588.84;103246;1258;96726;-77
2023/04/06 03:15:56;;;;;;;20.30;10.30;;;;;;;1.46;53.55;100587.45;103242;1254;109228;-77
2023/04/06 03:18:35;;;;;;;21.30;10.80;;;;;;;1.46;53.53;100588.30;103356;1254;96425;-76
2023/04/06 03:21:22;;;;;;;22.00;11.40;;;;;;;1.42;53.55;100586.36;103139;1254;137754;-76
2023/04/06 03:23:51;;;;;;;26.60;10.60;;;;;;;1.38;53.77;100589.23;103256;1256;109507;-76
2023/04/06 03:26:22;;;;;;;20.90;10.40;;;;;;;1.36;53.81;100590.77;103108;1254;137742;-76
2023/04/06 03:28:57;;;;;;;16.60;9.70;;;;;;;1.32;54.08;100597.06;103343;1254;107297;-76
2023/04/06 03:31:37;;;;;;;19.90;10.30;;;;;;;1.30;54.26;100596.02;103198;1258;137693;-76
2023/04/06 03:34:12;;;;;;;;;;;;;;;1.28;54.44;100597.71;103370;1254;112616;-76
2023/04/06 03:36:42;;;;;;;19.40;9.80;;;;;;;1.24;54.61;100598.66;103494;1254;107900;-76
2023/04/06 03:39:10;;;;;;;18.10;10.70;;;;;;;1.23;54.72;100598.48;103476;1255;137681;-77
2023/04/06 03:41:38;;;;;;;20.30;10.90;;;;;;;1.21;54.88;100596.24;103309;1256;107046;-76
2023/04/06 03:44:42;;;;;;;18.00;10.40;;;;;;;1.17;54.91;100595.35;103493;1255;138085;-76
2023/04/06 03:47:12;;;;;;;21.60;11.70;;;;;;;1.13;55.00;100593.60;103508;1255;109797;-77
2023/04/06 03:49:43;;;;;;;24.90;13.70;;;;;;;1.10;55.14;100589.46;103181;1254;137800;-76
2023/04/06 03:52:11;;;;;;;20.80;11.40;;;;;;;1.07;55.38;100594.20;103540;1258;96381;-77
2023/04/06 03:54:38;;;;;;;22.70;12.60;;;;;;;1.05;55.47;100590.06;103408;1255;107857;-77
2023/04/06 03:57:06;;;;;;;21.50;12.10;;;;;;;1.04;55.67;100593.81;103464;1256;137681;-76
2023/04/06 03:59:39;;;;;;;21.00;12.00;;;;;;;1.01;55.71;100591.73;103428;1254;109586;-76
2023/04/06 04:02:16;;;;;;;22.70;12.20;;;;;;;0.99;55.80;100589.83;103318;1257;138136;-75
2023/04/06 04:04:44;;;;;;;23.80;12.30;;;;;;;0.98;56.14;100594.95;103313;1256;96467;-77
2023/04/06 04:07:11;;;;;;;24.80;11.70;;;;;;;0.99;56.21;100592.39;103429;1257;109765;-76
2023/04/06 04:09:59;;;;;;;23.10;12.30;;;;;;;0.98;56.37;100594.27;103322;1256;96451;-75
2023/04/06 04:12:30;;;;;;;25.60;13.80;;;;;;;0.96;56.44;100593.55;103307;1254;110693;-77
2023/04/06 04:15:18;;;;;;;22.20;11.40;;;;;;;0.92;56.75;100596.44;103152;1256;138042;-77
2023/04/06 04:17:49;;;;;;;25.30;12.30;;;;;;;0.93;56.83;100596.61;103297;1255;96973;-77
2023/04/06 04:20:19;;;;;;;21.00;11.60;;;;;;;0.94;57.00;100593.88;103249;1256;137698;-77
2023/04/06 04:22:50;;;;;;;24.40;11.70;;;;;;;0.94;57.21;100596.45;103240;1254;96502;-77
2023/04/06 04:25:18;;;;;;;21.10;10.60;;;;;;;0.95;57.29;100595.61;103529;1258;109726;-78
2023/04/06 04:27:48;;;;;;;20.10;11.30;;;;;;;0.97;57.31;100587.58;103063;1260;138624;-78
2023/04/06 04:30:24;;;;;;;23.50;11.70;;;;;;;0.99;57.50;100588.98;103294;1256;96594;-76
2023/04/06 04:33:11;;;;;;;21.30;11.30;;;;;;;0.98;57.47;100587.59;103163;1256;138144;-76
2023/04/06 04:35:59;;;;;;;19.10;10.90;;;;;;;1.02;57.63;100587.98;103229;1254;96558;-77
2023/04/06 04:38:31;;;;;;;20.00;10.80;;;;;;;1.04;57.50;100583.38;103105;1254;138181;-77
2023/04/06 04:41:19;;;;;;;22.40;10.60;;;;;;;1.08;57.50;100583.09;103153;1256;108910;-76
2023/04/06 04:43:47;;;;;;;19.50;10.80;;;;;;;1.09;57.68;100583.11;104475;1255;138828;-73
2023/04/06 04:46:19;;;;;;;22.00;10.50;;;;;;;1.13;57.70;100583.66;103728;1255;1003093;-76
2023/04/06 04:48:46;;;;;;;21.20;10.70;;;;;;;1.16;57.87;100583.02;103985;1254;96457;-73
2023/04/06 04:51:34;;;;;;;22.90;10.90;;;;;;;1.21;57.71;100574.66;103227;1258;138365;-75
2023/04/06 04:54:24;;;;;;;21.20;10.30;;;;;;;1.25;57.71;100572.98;103227;1256;107971;-75
2023/04/06 04:56:52;;;;;;;19.50;9.70;;;;;;;1.26;57.75;100571.46;103112;1256;138496;-74
2023/04/06 04:59:39;;;;;;;18.50;10.00;;;;;;;1.27;57.74;100566.02;103458;1258;108955;-73
2023/04/06 05:02:14;;;;;;;20.10;10.00;;;;;;;1.28;57.68;100570.98;103080;1254;139356;-75
2023/04/06 05:04:56;;;;;;;17.60;9.90;;;;;;;1.32;57.88;100567.25;103289;1256;110218;-74
2023/04/06 05:07:28;;;;;;;22.20;10.50;;;;;;;1.34;57.92;100566.23;103174;1258;108123;-73
2023/04/06 05:09:58;;;;;;;20.70;10.20;;;;;;;1.38;58.07;100563.70;103135;1256;138237;-73
2023/04/06 05:12:27;;;;;;;21.10;9.50;;;;;;;1.41;58.01;100566.48;102398;1256;1003553;-75
2023/04/06 05:15:05;;;;;;;16.80;9.20;;;;;;;1.44;57.87;100569.27;103131;1254;138441;-70
2023/04/06 05:17:33;;;;;;;17.60;9.10;;;;;;;1.47;58.02;100569.47;104017;1254;109366;-78
2023/04/06 05:20:00;;;;;;;15.70;9.00;;;;;;;1.49;58.01;100572.58;102995;1256;138626;-73
2023/04/06 05:22:28;;;;;;;20.60;9.40;;;;;;;1.50;57.95;100573.60;103139;1256;96506;-72
2023/04/06 05:25:08;;;;;;;15.70;8.60;;;;;;;1.52;57.99;100575.52;104541;1255;107932;-76
2023/04/06 05:27:38;;;;;;;18.00;8.40;;;;;;;1.55;57.89;100578.11;104399;1256;138205;-72
2023/04/06 05:30:13;;;;;;;14.80;8.40;;;;;;;1.60;57.95;100572.14;104489;1256;108373;-77
2023/04/06 05:32:44;;;;;;;16.60;8.60;;;;;;;1.67;57.78;100573.60;104307;1256;139030;-72
2023/04/06 05:35:12;;;;;;;12.50;8.10;;;;;;;1.73;57.61;100572.62;104570;1254;94513;-76
2023/04/06 05:37:40;;;;;;;14.60;8.30;;;;;;;1.83;57.57;100571.67;104384;1256;138914;-72
2023/04/06 05:40:10;;;;;;;15.60;8.40;;;;;;;1.93;57.50;100574.67;103551;1258;96908;-77
2023/04/06 05:42:40;;;;;;;16.10;7.50;;;;;;;2.08;57.32;100567.07;103241;1256;109639;-75
2023/04/06 05:45:16;;;;;;;16.40;7.90;;;;;;;2.23;57.10;100566.84;103761;1258;138830;-78
2023/04/06 05:47:45;;;;;;;13.00;7.20;;;;;;;2.37;56.90;100560.92;103285;1256;96473;-78
2023/04/06 05:50:20;;;;;;;12.30;7.30;;;;;;;2.59;56.73;100560.35;103183;1258;137342;-78
2023/04/06 05:52:47;;;;;;;16.80;7.70;;;;;;;2.84;56.64;100552.76;103289;1258;96425;-77
2023/04/06 05:55:17;;;;;;;15.80;7.20;;;;;;;3.13;56.16;100552.33;103355;1256;110790;-78
2023/04/06 05:57:47;;;;;;;16.80;7.70;;;;;;;3.38;55.41;100552.23;104487;1254;137555;-76
2023/04/06 06:00:17;;;;;;;12.70;7.00;;;;;;;3.58;55.02;100555.01;104015;1257;94529;-73
2023/04/06 06:02:49;;;;;;;13.50;7.20;;;;;;;3.81;54.73;100551.59;103341;1256;137391;-73
2023/04/06 06:05:19;;;;;;;14.90;6.90;;;;;;;4.00;54.37;100544.70;103377;1258;96604;-73
2023/04/06 06:07:53;;;;;;;10.40;6.50;;;;;;;4.32;53.91;100545.00;103215;1254;138118;-77
2023/04/06 06:10:20;;;;;;;11.80;5.90;;;;;;;4.72;53.26;100540.77;103240;1258;107631;-74
2023/04/06 06:12:49;;;;;;;9.20;5.60;;;;;;;5.14;52.53;100540.23;103315;1254;96899;-75
2023/04/06 06:15:17;;;;;;;14.60;6.20;;;;;;;5.53;51.79;100539.98;103069;1257;137413;-75
2023/04/06 06:17:46;;;;;;;10.00;6.00;;;;;;;5.88;50.38;100537.66;103227;1256;96416;-75
2023/04/06 06:20:15;;;;;;;9.60;5.30;;;;;;;6.26;50.12;100533.02;103502;1254;138095;-75
2023/04/06 06:22:42;;;;;;;13.40;5.50;;;;;;;6.69;49.32;100532.03;103184;1255;106650;-74
2023/04/06 06:25:15;;;;;;;8.50;5.30;;;;;;;6.99;48.50;100528.90;103380;1254;96472;-72
2023/04/06 06:27:45;;;;;;;7.80;5.20;;;;;;;7.11;48.11;100532.02;103236;1256;137316;-72
2023/04/06 06:30:15;;;;;;;11.50;5.80;;;;;;;7.22;47.89;100533.95;103272;1258;96486;-73
2023/04/06 06:32:42;;;;;;;9.10;5.00;;;;;;;7.33;47.41;100533.80;103435;1258;137336;-74
2023/04/06 06:35:11;;;;;;;8.60;5.30;;;;;;;7.36;46.70;100534.27;103093;1256;108642;-75
2023/04/06 06:37:41;;;;;;;11.40;5.10;;;;;;;7.35;46.50;100532.54;103225;1258;137397;-77
2023/04/06 06:40:15;;;;;;;9.70;4.90;;;;;;;7.44;46.06;100530.70;103210;1255;108765;-74
2023/04/06 06:42:43;;;;;;;9.20;4.60;;;;;;;7.53;45.65;100533.14;103666;1258;96866;-76
2023/04/06 06:45:32;;;;;;;5.40;4.60;;;;;;;7.62;45.51;100526.08;103533;1255;137885;-74
2023/04/06 06:47:59;;;;;;;8.00;4.70;;;;;;;7.63;45.10;100520.71;103173;1257;108552;-73
2023/04/06 06:50:29;;;;;;;9.00;4.60;;;;;;;7.55;44.78;100520.14;103177;1258;137271;-73
2023/04/06 06:52:56;;;;;;;6.90;4.00;;;;;;;7.44;44.60;100522.55;103220;1256;109052;-76
2023/04/06 06:55:25;;;;;;;8.80;4.40;;;;;;;7.25;44.61;100523.00;103282;1257;96825;-73
2023/04/06 06:57:52;;;;;;;8.50;3.70;;;;;;;7.04;44.50;100514.64;103340;1254;137085;-72
2023/04/06 07:00:21;;;;;;;11.10;4.10;;;;;;;6.81;44.55;100515.13;103165;1256;108201;-73
2023/04/06 07:02:49;;;;;;;6.80;3.80;;;;;;;6.61;44.54;100511.73;103161;1256;137916;-72
2023/04/06 07:05:18;;;;;;;7.60;3.80;;;;;;;6.49;45.04;100514.81;103947;1256;107552;-74
2023/04/06 07:07:58;;;;;;;9.90;4.00;;;;;;;6.40;45.17;100512.15;103247;1254;137961;-73
2023/04/06 07:10:26;;;;;;;8.60;4.30;;;;;;;6.32;45.34;100518.64;103399;1256;110422;-74
2023/04/06 07:12:54;;;;;;;8.00;4.10;;;;;;;6.36;45.63;100517.20;103497;1254;107578;-75
2023/04/06 07:15:26;;;;;;;7.10;4.00;;;;;;;6.50;45.30;100516.54;103169;1258;137419;-75
2023/04/06 07:17:54;;;;;;;6.60;4.30;;;;;;;6.65;45.23;100518.77;103273;1254;108190;-73
2023/04/06 07:20:24;;;;;;;8.10;3.90;;;;;;;6.96;45.00;100515.80;103326;1257;140145;-71
2023/04/06 07:22:52;;;;;;;7.00;4.30;;;;;;;7.28;45.02;100519.33;103610;1253;110067;-78
2023/04/06 07:25:28;;;;;;;6.90;4.20;;;;;;;7.66;44.75;100514.60;103400;1256;108509;-75
2023/04/06 07:27:59;;;;;;;8.40;4.00;;;;;;;7.92;44.34;100512.77;103301;1254;137768;-72
2023/04/06 07:30:28;;;;;;;7.50;4.50;;;;;;;8.00;43.94;100505.73;103315;1257;108739;-72
2023/04/06 07:33:01;;;;;;;8.00;4.60;;;;;;;7.87;43.82;100500.92;103642;1254;137307;-73
2023/04/06 07:35:30;;;;;;;10.40;4.40;;;;;;;7.71;43.82;100502.05;103363;1253;110007;-72
2023/04/06 07:37:58;;;;;;;9.70;4.40;;;;;;;7.60;44.00;100510.39;103111;1257;137926;-72
2023/04/06 07:40:26;;;;;;;10.10;4.60;;;;;;;7.46;44.05;100508.17;103294;1255;96498;-72
2023/04/06 07:42:54;;;;;;;8.60;3.90;;;;;;;7.23;43.35;100500.02;103361;1258;106713;-72
2023/04/06 07:45:24;;;;;;;6.80;4.20;;;;;;;6.88;43.92;100515.55;103184;1256;137468;-72
2023/04/06 07:47:52;;;;;;;7.70;4.00;;;;;;;6.64;44.41;100514.98;103516;1256;110413;-73
2023/04/06 07:50:21;;;;;;;8.40;4.50;;;;;;;6.50;44.85;100510.66;103078;1256;137702;-72
2023/04/06 07:52:48;;;;;;;6.80;4.30;;;;;;;6.44;45.21;100512.09;103114;1260;96475;-74
2023/04/06 07:55:19;;;;;;;8.00;3.70;;;;;;;6.42;45.40;100502.63;103224;1260;107716;-72
2023/04/06 07:57:48;;;;;;;8.00;3.90;;;;;;;6.35;44.81;100497.70;103309;1259;137373;-72
2023/04/06 08:00:17;;;;;;;7.70;3.80;;;;;;;6.21;44.94;100497.31;103404;1254;110434;-72
2023/04/06 08:02:49;;;;;;;6.30;3.60;;;;;;;6.12;45.30;100500.88;103455;1257;137307;-73
2023/04/06 08:05:17;;;;;;;7.60;3.50;;;;;;;5.99;45.49;100501.52;103749;1257;96431;-72
2023/04/06 08:07:47;;;;;;;5.00;3.40;;;;;;;5.89;46.06;100503.30;103211;1257;137420;-70
2023/04/06 08:10:26;;;;;;;7.40;3.80;;;;;;;5.89;46.41;100505.54;103246;1258;96358;-72
2023/04/06 08:12:53;;;;;;;6.90;3.70;;;;;;;5.90;46.49;100501.92;103382;1255;110228;-72
2023/04/06 08:15:21;;;;;;;9.10;4.10;;;;;;;5.87;46.52;100497.62;103108;1258;137624;-72
2023/04/06 08:17:48;;;;;;;8.70;3.60;;;;;;;5.76;46.49;100503.24;103763;1256;95359;-74
2023/04/06 08:20:23;;;;;;;5.70;3.50;;;;;;;5.72;46.94;100498.77;103202;1258;137222;-73
2023/04/06 08:22:53;;;;;;;7.20;3.60;;;;;;;5.76;47.08;100491.17;103199;1254;96588;-73
2023/04/06 08:25:20;;;;;;;4.50;3.10;;;;;;;5.79;47.17;100493.90;103180;1256;110760;-72
2023/04/06 08:27:51;;;;;;;7.60;3.40;;;;;;;5.83;47.05;100490.41;103053;1256;137213;-72
2023/04/06 08:30:29;;;;;;;7.10;3.50;;;;;;;5.87;47.35;100494.15;103245;1258;96448;-74
2023/04/06 08:32:56;;;;;;;9.00;3.60;;;;;;;5.93;47.57;100494.84;102942;1258;295381;-71
2023/04/06 08:35:23;;;;;;;5.40;3.20;;;;;;;5.95;47.77;100501.39;102497;1254;1003033;-71
2023/04/06 08:37:51;;;;;;;5.80;3.80;;;;;;;5.92;47.64;100496.23;103135;1256;137728;-70
2023/04/06 08:40:40;;;;;;;8.00;3.70;;;;;;;5.97;48.12;100494.80;103318;1256;107237;-71
2023/04/06 08:43:11;;;;;;;5.40;3.50;;;;;;;6.08;48.19;100492.61;103246;1256;96466;-72
2023/04/06 08:45:44;;;;;;;6.10;3.70;;;;;;;6.21;48.56;100491.98;103201;1256;137226;-71
2023/04/06 08:48:12;;;;;;;8.60;3.70;;;;;;;6.24;48.79;100480.88;103242;1255;96420;-70
2023/04/06 08:50:44;;;;;;;8.90;4.10;;;;;;;6.03;48.82;100485.77;103129;1258;137277;-71
2023/04/06 08:53:32;;;;;;;7.60;3.80;;;;;;;5.80;49.68;100487.52;103282;1254;107699;-71
2023/04/06 08:56:10;;;;;;;9.90;3.90;;;;;;;5.59;50.02;100487.85;103201;1255;137819;-71
2023/04/06 08:58:50;;;;;;;7.30;4.20;;;;;;;5.42;50.61;100485.74;103281;1254;107613;-72
2023/04/06 09:01:37;;;;;;;6.40;4.30;;;;;;;5.25;50.97;100486.04;103175;1258;96412;-72
2023/04/06 09:04:10;;;;;;;7.00;4.00;;;;;;;5.05;51.33;100485.64;103169;1260;110018;-85
2023/04/06 09:06:40;;;;;;;6.00;4.20;;;;;;;4.91;51.78;100487.96;103695;1256;108723;-71
2023/04/06 09:09:08;;;;;;;8.90;4.90;;;;;;;4.77;52.11;100487.52;103480;1254;137341;-71
2023/04/06 09:11:47;;;;;;;8.50;4.90;;;;;;;4.70;52.37;100485.49;103824;1258;108397;-73
2023/04/06 09:14:15;;;;;;;8.40;4.50;;;;;;;4.63;52.66;100482.73;103432;1254;137528;-85
2023/04/06 09:16:45;;;;;;;9.40;4.60;;;;;;;4.58;52.87;100478.12;103400;1255;110675;-75
2023/04/06 09:19:15;;;;;;;9.40;4.60;;;;;;;4.49;53.01;100473.52;103404;1256;107246;-69
2023/04/06 09:21:43;;;;;;;8.20;4.70;;;;;;;4.48;53.34;100465.93;103260;1254;138155;-71
2023/04/06 09:24:42;;;;;;;7.50;4.90;;;;;;;4.37;53.73;100464.60;103351;1256;108310;-71
2023/04/06 09:27:12;;;;;;;8.50;4.70;;;;;;;4.25;53.73;100465.50;103532;1258;138466;-73
2023/04/06 09:29:44;;;;;;;14.00;4.40;;;;;;;4.20;54.20;100463.80;102932;1259;110094;-71
2023/04/06 09:32:20;;;;;;;6.50;4.60;;;;;;;4.17;54.80;100458.13;103209;1257;137732;-71
2023/04/06 09:35:11;;;;;;;6.60;3.90;;;;;;;4.09;55.14;100453.32;103355;1259;96498;-71
2023/04/06 09:37:43;;;;;;;6.90;4.40;;;;;;;3.96;55.00;100453.87;103622;1256;137416;-71
2023/04/06 09:40:13;;;;;;;7.90;4.70;;;;;;;3.86;55.46;100455.44;103938;1258;95219;-70
2023/04/06 09:42:41;;;;;;;10.70;4.70;;;;;;;3.79;55.98;100449.43;103277;1254;109892;-70
2023/04/06 09:45:10;;;;;;;7.70;4.50;;;;;;;3.71;56.11;100449.77;103101;1262;137597;-70
2023/04/06 09:47:40;;;;;;;8.30;4.60;;;;;;;3.67;56.06;100455.28;103798;1256;96438;-70
2023/04/06 09:50:11;;;;;;;5.80;4.20;;;;;;;3.65;56.29;100453.57;103361;1254;138387;-71
2023/04/06 09:52:42;;;;;;;9.20;5.50;;;;;;;3.63;56.69;100443.09;103452;1259;96513;-69
2023/04/06 09:55:16;;;;;;;8.00;4.30;;;;;;;3.61;57.05;100431.23;103761;1257;110078;-72
2023/04/06 09:57:51;;;;;;;10.80;4.50;;;;;;;3.53;57.23;100434.14;103604;1258;137311;-72
2023/04/06 10:00:33;;;;;;;8.70;4.90;;;;;;;3.45;57.95;100435.70;103264;1258;96504;-71
2023/04/06 10:03:15;;;;;;;5.70;4.00;;;;;;;3.42;57.75;100436.05;103045;1254;137393;-70
2023/04/06 10:05:52;;;;;;;6.00;4.20;;;;;;;3.41;58.63;100432.09;103183;1267;96490;-71
2023/04/06 10:08:25;;;;;;;6.20;4.10;;;;;;;3.39;58.86;100430.70;102945;1257;138080;-70
2023/04/06 10:10:53;;;;;;;7.30;4.10;;;;;;;3.37;58.96;100434.66;103276;1254;108148;-71
2023/04/06 10:13:21;;;;;;;6.20;4.40;;;;;;;3.37;59.62;100430.70;103195;1260;96443;-71
2023/04/06 10:15:53;;;;;;;8.00;4.40;;;;;;;3.35;59.64;100427.95;103100;1259;137782;-70
2023/04/06 10:18:25;;;;;;;9.30;5.80;;;;;;;3.31;60.21;100422.13;103268;1254;96329;-69
2023/04/06 10:21:16;;;;;;;8.20;5.10;;;;;;;3.31;60.60;100418.34;103178;1254;137909;-68
2023/04/06 10:23:50;;;;;;;7.40;4.60;;;;;;;3.37;60.76;100412.48;103282;1258;108458;-72
2023/04/06 10:26:20;;;;;;;7.90;5.00;;;;;;;3.40;61.20;100404.91;103741;1252;139201;-71
2023/04/06 10:28:49;;;;;;;7.60;4.90;;;;;;;3.39;60.56;100407.66;103367;1259;107345;-71
2023/04/06 10:31:29;;;;;;;8.30;5.00;;;;;;;3.36;61.31;100408.88;103346;1254;96312;-71
2023/04/06 10:34:01;;;;;;;7.30;5.00;;;;;;;3.29;61.72;100410.09;103252;1254;137720;-72
2023/04/06 10:36:41;;;;;;;7.60;5.20;;;;;;;3.22;62.13;100415.58;103205;1254;108534;-73
2023/04/06 10:39:28;;;;;;;8.60;5.30;;;;;;;3.21;62.04;100416.77;103218;1258;138071;-71
2023/04/06 10:41:55;;;;;;;8.70;5.20;;;;;;;3.21;62.50;100410.94;103504;1256;108285;-71
2023/04/06 10:44:25;;;;;;;7.30;5.30;;;;;;;3.21;62.57;100405.95;103096;1260;138011;-73
2023/04/06 10:47:00;;;;;;;10.00;5.20;;;;;;;3.21;63.09;100403.89;103414;1253;110728;-70
2023/04/06 10:49:28;;;;;;;5.70;4.60;;;;;;;3.20;62.96;100402.68;103625;1257;108916;-70
2023/04/06 10:51:57;;;;;;;7.40;5.10;;;;;;;3.18;63.37;100395.98;103263;1259;137869;-70
2023/04/06 10:54:27;;;;;;;10.50;5.10;;;;;;;3.16;63.53;100393.77;104003;1254;108094;-70
2023/04/06 10:56:55;;;;;;;8.00;5.10;;;;;;;3.12;63.83;100392.05;103173;1260;138203;-70
2023/04/06 10:59:46;;;;;;;8.00;5.20;;;;;;;3.08;63.91;100388.95;103206;1258;110525;-71
2023/04/06 11:02:23;;;;;;;8.10;5.10;;;;;;;3.06;64.01;100386.20;103467;1254;138111;-70
2023/04/06 11:04:59;;;;;;;8.60;5.50;;;;;;;3.08;64.01;100385.18;103697;1254;96421;-71
2023/04/06 11:07:30;;;;;;;8.60;5.30;;;;;;;3.06;64.61;100381.58;103273;1254;108909;-72
2023/04/06 11:09:57;;;;;;;10.50;5.80;;;;;;;3.00;64.79;100384.13;103583;1255;137887;-71
2023/04/06 11:12:44;;;;;;;13.50;6.60;;;;;;;2.95;64.76;100388.08;103406;1254;110498;-71
2023/04/06 11:15:12;;;;;;;9.70;6.60;;;;;;;2.92;65.09;100382.76;103163;1255;138403;-71
2023/04/06 11:17:40;;;;;;;13.50;5.80;;;;;;;2.90;65.19;100386.36;103700;1254;96484;-72
2023/04/06 11:20:17;;;;;;;8.40;5.30;;;;;;;2.88;65.43;100386.35;103334;1254;141505;-73
2023/04/06 11:22:54;;;;;;;7.20;5.40;;;;;;;2.87;65.38;100383.95;104676;1258;94667;-72
2023/04/06 11:25:22;;;;;;;9.40;6.20;;;;;;;2.88;65.99;100380.88;103517;1254;111004;-73
2023/04/06 11:27:50;;;;;;;8.10;5.70;;;;;;;2.88;65.95;100372.61;103123;1257;138126;-73
2023/04/06 11:30:18;;;;;;;11.50;6.30;;;;;;;2.91;65.91;100364.22;103309;1254;96439;-71
2023/04/06 11:32:48;;;;;;;9.90;6.30;;;;;;;2.95;65.95;100363.52;103100;1259;137989;-74
2023/04/06 11:35:22;;;;;;;9.20;6.20;;;;;;;2.99;65.80;100359.91;103149;1255;96447;-74
2023/04/06 11:37:51;;;;;;;9.50;6.50;;;;;;;2.98;66.43;100359.91;104581;1254;137912;-74
2023/04/06 11:40:24;;;;;;;11.60;7.00;;;;;;;2.95;65.96;100356.48;104640;1255;107275;-78